Time;durP1;ratioP1;P1;durP2;ratioP2;P2;SDS_P1;SDS_P2;PMS_P1;PMS_P2;Temp;Humidity;BMP_temperature;BMP_pressure;BME280_temperature;BME280_humidity;BME280_pressure;Samples;Min_cycle;Max_cycle;Signal;HPM_P1;HPM_P2
2022/07/30 00:00:00;;;;;;;3.92;0.80;;;17.60;99.90;;;;;;4913465;29;20458;-73
2022/07/30 00:02:27;;;;;;;3.10;1.15;;;17.60;99.90;;;;;;4913271;29;20051;-73
2022/07/30 00:04:55;;;;;;;1.85;0.70;;;17.60;99.90;;;;;;4914739;29;20155;-73
2022/07/30 00:07:22;;;;;;;0.73;0.70;;;17.60;99.90;;;;;;4913436;29;20151;-73
2022/07/30 00:09:49;;;;;;;1.15;0.93;;;17.60;99.90;;;;;;4929418;29;20135;-73
2022/07/30 00:12:17;;;;;;;2.20;0.70;;;17.60;99.90;;;;;;4914717;29;20203;-74
2022/07/30 00:14:44;;;;;;;2.03;0.70;;;17.60;99.90;;;;;;4914873;29;20142;-74
2022/07/30 00:17:11;;;;;;;1.80;0.70;;;17.60;99.90;;;;;;4914938;29;20102;-73
2022/07/30 00:19:38;;;;;;;1.90;0.70;;;17.60;99.90;;;;;;4914923;29;20052;-73
2022/07/30 00:22:07;;;;;;;1.00;0.60;;;17.60;99.90;;;;;;4913396;29;20052;-73
2022/07/30 00:24:34;;;;;;;1.20;0.80;;;17.60;99.90;;;;;;4913365;29;20070;-73
2022/07/30 00:27:01;;;;;;;1.52;0.70;;;17.50;99.90;;;;;;4913065;29;20115;-73
2022/07/30 00:29:29;;;;;;;2.85;0.70;;;17.50;99.90;;;;;;4913181;29;20056;-73
2022/07/30 00:31:56;;;;;;;0.40;0.40;;;17.50;99.90;;;;;;4914542;29;20131;-73
2022/07/30 00:34:23;;;;;;;2.40;0.63;;;17.40;99.90;;;;;;4928943;29;20052;-73
2022/07/30 00:36:52;;;;;;;1.65;0.63;;;17.40;99.90;;;;;;4928990;29;20044;-73
2022/07/30 00:39:20;;;;;;;0.70;0.70;;;17.40;99.90;;;;;;4912933;29;20607;-73
2022/07/30 00:41:55;;;;;;;1.60;0.73;;;17.50;99.90;;;;;;4929124;29;20146;-73
2022/07/30 00:44:23;;;;;;;0.70;0.70;;;17.50;99.90;;;;;;4929071;29;20048;-74
2022/07/30 00:46:50;;;;;;;2.50;0.70;;;17.50;99.90;;;;;;4928776;29;20055;-73
2022/07/30 00:49:17;;;;;;;1.15;0.75;;;17.50;99.90;;;;;;4914510;29;20048;-73
2022/07/30 00:51:45;;;;;;;2.63;0.65;;;17.60;99.90;;;;;;4916057;29;20044;-73
2022/07/30 00:54:12;;;;;;;1.20;0.70;;;17.60;99.90;;;;;;4916803;29;20048;-73
2022/07/30 00:56:40;;;;;;;3.42;0.70;;;17.60;99.90;;;;;;4918372;29;20056;-73
2022/07/30 00:59:08;;;;;;;1.83;0.80;;;17.60;99.90;;;;;;4932765;29;20520;-73
2022/07/30 01:01:36;;;;;;;5.15;1.08;;;17.60;99.90;;;;;;4918638;29;20075;-73
2022/07/30 01:04:03;;;;;;;1.08;0.70;;;17.60;99.90;;;;;;4917297;29;20077;-73
2022/07/30 01:06:31;;;;;;;1.27;0.90;;;17.60;99.90;;;;;;4918570;29;20074;-73
2022/07/30 01:08:58;;;;;;;1.50;0.65;;;17.60;99.90;;;;;;4916643;29;20084;-73
2022/07/30 01:11:34;;;;;;;2.03;0.80;;;17.60;99.90;;;;;;4918214;29;20079;-74
2022/07/30 01:14:03;;;;;;;2.67;0.95;;;17.60;99.90;;;;;;4917719;29;20056;-73
2022/07/30 01:16:30;;;;;;;1.90;0.88;;;17.60;99.90;;;;;;4919546;29;20052;-74
2022/07/30 01:21:49;;;;;;;1.35;1.10;;;17.60;99.90;;;;;;4921623;29;20425;-73
2022/07/30 01:24:25;;;;;;;2.33;0.85;;;17.50;99.90;;;;;;4937870;29;20398;-74
2022/07/30 01:26:55;;;;;;;5.25;0.80;;;17.50;99.90;;;;;;4934766;29;20142;-73
2022/07/30 01:29:24;;;;;;;0.90;0.60;;;17.50;99.90;;;;;;4917531;29;20052;-74
2022/07/30 01:31:58;;;;;;;2.13;0.80;;;17.50;99.90;;;;;;4916107;29;20465;-73
2022/07/30 01:34:28;;;;;;;0.45;0.45;;;17.50;99.90;;;;;;4917291;29;20076;-73
2022/07/30 01:36:57;;;;;;;1.40;0.55;;;17.50;99.90;;;;;;4931909;29;20147;-74
2022/07/30 01:39:26;;;;;;;0.75;0.60;;;17.50;99.90;;;;;;4917236;29;20052;-74
2022/07/30 01:41:56;;;;;;;2.97;0.80;;;17.50;99.90;;;;;;4915593;29;20432;-73
2022/07/30 01:44:25;;;;;;;1.67;0.70;;;17.50;99.90;;;;;;4917436;29;20047;-74
2022/07/30 01:46:55;;;;;;;2.30;1.10;;;17.50;99.90;;;;;;4931751;29;20522;-73
2022/07/30 01:49:25;;;;;;;0.50;0.50;;;17.50;99.90;;;;;;4915974;29;20075;-73
2022/07/30 01:51:54;;;;;;;0.73;0.40;;;17.50;99.90;;;;;;4915547;29;20044;-73
2022/07/30 01:54:24;;;;;;;0.88;0.88;;;17.50;99.90;;;;;;4931523;29;20052;-74
2022/07/30 01:56:53;;;;;;;1.13;0.70;;;17.50;99.90;;;;;;4915769;29;20589;-73
2022/07/30 01:59:24;;;;;;;0.60;0.60;;;17.50;99.90;;;;;;4931147;29;20517;-73
2022/07/30 02:01:52;;;;;;;1.27;0.60;;;17.50;99.90;;;;;;4930279;29;20056;-73
2022/07/30 02:04:20;;;;;;;1.95;0.73;;;17.40;99.90;;;;;;4915580;29;20425;-73
2022/07/30 02:06:56;;;;;;;1.73;0.57;;;17.40;99.90;;;;;;4915517;29;20052;-73
2022/07/30 02:09:31;;;;;;;1.58;0.85;;;17.40;99.90;;;;;;4915617;29;20470;-73
2022/07/30 02:15:13;;;;;;;2.42;0.68;;;17.40;99.90;;;;;;4902298;29;20433;-73
2022/07/30 02:17:43;;;;;;;1.23;0.85;;;17.40;99.90;;;;;;4915362;29;20080;-73
2022/07/30 02:20:12;;;;;;;0.80;0.80;;;17.30;99.90;;;;;;4916524;29;20059;-73
2022/07/30 02:22:43;;;;;;;3.70;1.17;;;17.30;99.90;;;;;;4915157;29;20517;-73
2022/07/30 02:25:13;;;;;;;1.90;0.80;;;17.30;99.90;;;;;;4931343;29;20071;-73
2022/07/30 02:27:45;;;;;;;0.98;0.95;;;17.30;99.90;;;;;;4931198;29;20107;-73
2022/07/30 02:30:15;;;;;;;1.00;0.85;;;17.30;99.90;;;;;;4931029;29;20056;-74
2022/07/30 02:32:44;;;;;;;2.05;0.85;;;17.30;99.90;;;;;;4915108;29;20052;-73
2022/07/30 02:35:18;;;;;;;1.92;1.15;;;17.30;99.90;;;;;;4914880;29;20121;-74
2022/07/30 02:37:49;;;;;;;1.50;0.65;;;17.20;99.90;;;;;;4916046;29;20529;-74
2022/07/30 02:40:18;;;;;;;0.80;0.65;;;17.20;99.90;;;;;;4930953;29;20107;-73
2022/07/30 02:42:49;;;;;;;1.02;0.73;;;17.10;99.90;;;;;;4916377;29;20059;-73
2022/07/30 02:45:22;;;;;;;4.07;0.93;;;17.10;99.90;;;;;;4915108;29;20512;-73
2022/07/30 02:47:54;;;;;;;1.02;0.80;;;17.10;99.90;;;;;;4915230;29;20090;-74
2022/07/30 02:50:23;;;;;;;1.13;0.80;;;17.10;99.90;;;;;;4914710;29;20056;-74
2022/07/30 02:52:53;;;;;;;0.65;0.65;;;17.10;99.90;;;;;;4930359;29;20533;-74
2022/07/30 02:55:21;;;;;;;1.38;1.30;;;17.20;99.90;;;;;;4916073;29;20559;-74
2022/07/30 02:57:51;;;;;;;3.03;0.80;;;17.20;99.90;;;;;;4914642;29;20051;-74
2022/07/30 03:00:23;;;;;;;1.55;0.70;;;17.30;99.90;;;;;;4914428;29;20055;-74
2022/07/30 03:02:52;;;;;;;1.00;0.60;;;17.30;99.90;;;;;;4914429;29;20424;-73
2022/07/30 03:05:20;;;;;;;0.50;0.50;;;17.40;99.90;;;;;;4914710;29;20648;-74
2022/07/30 03:07:48;;;;;;;1.60;0.65;;;17.50;99.90;;;;;;4915834;29;20051;-73
2022/07/30 03:10:16;;;;;;;0.73;0.73;;;17.50;99.90;;;;;;4930037;29;20070;-74
2022/07/30 03:12:45;;;;;;;3.38;1.02;;;17.50;99.90;;;;;;4898426;29;20095;-74
2022/07/30 03:15:14;;;;;;;0.60;0.60;;;17.40;99.90;;;;;;4914412;29;20044;-74
2022/07/30 03:17:48;;;;;;;1.55;0.60;;;17.30;99.90;;;;;;4930296;29;20224;-74
2022/07/30 03:20:20;;;;;;;0.82;0.65;;;17.20;99.90;;;;;;4930168;29;20048;-73
2022/07/30 03:22:51;;;;;;;0.60;0.50;;;17.10;99.90;;;;;;4914382;29;20052;-74
2022/07/30 03:25:29;;;;;;;1.52;0.77;;;17.10;99.90;;;;;;4914127;29;20433;-73
2022/07/30 03:27:59;;;;;;;2.20;0.70;;;17.10;99.90;;;;;;4930023;29;20155;-74
2022/07/30 03:30:28;;;;;;;1.38;0.57;;;17.10;99.90;;;;;;4930082;29;20063;-73
2022/07/30 03:32:57;;;;;;;0.73;0.63;;;17.10;99.90;;;;;;4929749;29;20460;-74
2022/07/30 03:35:25;;;;;;;1.05;0.65;;;17.10;99.90;;;;;;4915261;29;20529;-74
2022/07/30 03:37:54;;;;;;;0.50;0.50;;;17.20;99.90;;;;;;4929632;29;20051;-73
2022/07/30 03:40:22;;;;;;;1.90;0.70;;;17.20;99.90;;;;;;4915354;29;20063;-74
2022/07/30 03:42:50;;;;;;;0.50;0.50;;;17.30;99.90;;;;;;4929225;29;20052;-74
2022/07/30 03:45:22;;;;;;;1.20;0.70;;;17.30;99.90;;;;;;4929724;29;20063;-74
2022/07/30 03:47:52;;;;;;;0.95;0.60;;;17.40;99.90;;;;;;4929221;29;20055;-73
2022/07/30 03:50:20;;;;;;;0.75;0.75;;;17.40;99.90;;;;;;4914898;29;20056;-74
2022/07/30 03:52:49;;;;;;;8.13;0.70;;;17.60;99.90;;;;;;4929233;29;20091;-74
2022/07/30 03:55:18;;;;;;;0.80;0.80;;;17.70;99.90;;;;;;4929386;29;20134;-73
2022/07/30 03:57:51;;;;;;;1.30;0.70;;;17.80;99.90;;;;;;4913501;29;20058;-73
2022/07/30 04:00:25;;;;;;;0.60;0.60;;;17.90;99.90;;;;;;4913771;29;20076;-73
2022/07/30 04:02:53;;;;;;;2.63;1.17;;;18.00;99.90;;;;;;4929362;29;20492;-74
2022/07/30 04:05:35;;;;;;;1.65;0.70;;;18.10;99.90;;;;;;4929556;29;20059;-74
2022/07/30 04:08:02;;;;;;;0.95;0.70;;;18.20;99.90;;;;;;4912772;29;20517;-74
2022/07/30 04:10:32;;;;;;;1.65;0.60;;;18.20;99.90;;;;;;4913607;29;20099;-74
2022/07/30 04:13:00;;;;;;;1.67;0.60;;;18.30;99.90;;;;;;4914508;29;20425;-74
2022/07/30 04:15:29;;;;;;;0.80;0.80;;;18.50;99.90;;;;;;4929328;29;20048;-74
2022/07/30 04:18:01;;;;;;;1.30;0.80;;;18.60;99.90;;;;;;4913586;29;20055;-74
2022/07/30 04:20:36;;;;;;;1.63;0.90;;;18.70;99.90;;;;;;4913384;29;20142;-74
2022/07/30 04:23:05;;;;;;;1.35;1.25;;;18.80;99.90;;;;;;4897135;29;20048;-74
2022/07/30 04:25:33;;;;;;;1.92;0.88;;;18.90;99.90;;;;;;4930031;29;20051;-74
2022/07/30 04:28:00;;;;;;;3.45;1.13;;;19.00;99.90;;;;;;4917892;29;20493;-74
2022/07/30 04:30:32;;;;;;;2.35;1.27;;;19.00;99.90;;;;;;4933036;29;20044;-74
2022/07/30 04:32:59;;;;;;;2.17;0.70;;;19.20;99.90;;;;;;4916943;29;20517;-74
2022/07/30 04:35:42;;;;;;;1.65;0.60;;;19.20;99.90;;;;;;4918752;29;20085;-74
2022/07/30 04:38:17;;;;;;;2.63;0.85;;;19.30;99.90;;;;;;4917169;29;20051;-74
2022/07/30 04:40:49;;;;;;;1.38;0.65;;;19.20;99.90;;;;;;4916826;29;20044;-74
2022/07/30 04:43:17;;;;;;;0.77;0.60;;;19.20;99.90;;;;;;4918278;29;20048;-74
2022/07/30 04:45:44;;;;;;;0.93;0.90;;;19.10;99.90;;;;;;4932915;29;20139;-74
2022/07/30 04:48:12;;;;;;;1.00;0.57;;;19.10;99.90;;;;;;4902922;29;20564;-73
2022/07/30 04:50:44;;;;;;;0.85;0.52;;;19.10;99.90;;;;;;4886600;29;20057;-74
2022/07/30 04:53:15;;;;;;;1.20;0.70;;;19.20;99.90;;;;;;4879357;29;20049;-74
2022/07/30 04:55:51;;;;;;;0.60;0.50;;;19.20;99.90;;;;;;4879594;29;20076;-73
2022/07/30 04:58:20;;;;;;;0.68;0.60;;;19.10;99.90;;;;;;4904549;29;20139;-73
2022/07/30 05:00:51;;;;;;;3.03;0.70;;;19.10;99.90;;;;;;4879340;29;20077;-76
2022/07/30 05:03:23;;;;;;;1.80;0.63;;;18.90;99.90;;;;;;4903721;29;20108;-75
2022/07/30 05:05:55;;;;;;;0.90;0.70;;;18.80;99.90;;;;;;4897885;29;20111;-75
2022/07/30 05:08:23;;;;;;;0.60;0.60;;;18.80;99.90;;;;;;4881808;29;20525;-76
2022/07/30 05:10:50;;;;;;;0.40;0.40;;;18.80;99.90;;;;;;4897907;29;20044;-76
2022/07/30 05:13:17;;;;;;;0.50;0.50;;;19.00;99.90;;;;;;4881717;29;20052;-76
2022/07/30 05:15:46;;;;;;;0.60;0.60;;;19.20;99.90;;;;;;4878940;29;20064;-75
2022/07/30 05:18:16;;;;;;;2.72;0.57;;;19.40;99.90;;;;;;4911180;29;20103;-75
2022/07/30 05:20:44;;;;;;;23.35;1.77;;;19.60;99.90;;;;;;4890747;29;20580;-74
2022/07/30 05:23:25;;;;;;;0.65;0.60;;;19.70;99.90;;;;;;4881356;29;20065;-76
2022/07/30 05:26:13;;;;;;;0.57;0.52;;;19.80;99.90;;;;;;4898831;29;20068;-76
2022/07/30 05:28:44;;;;;;;0.73;0.70;;;19.90;99.90;;;;;;4891083;29;20056;-75
2022/07/30 05:31:13;;;;;;;1.45;0.47;;;20.00;99.90;;;;;;4879290;29;20084;-76
2022/07/30 05:33:46;;;;;;;;;;;20.20;99.90;;;;;;4885172;29;20052;-72
2022/07/30 05:36:16;;;;;;;1.95;0.68;;;20.50;99.90;;;;;;4902179;29;19931;-71
2022/07/30 05:38:45;;;;;;;2.72;0.60;;;21.00;99.90;;;;;;4907050;29;20040;-75
2022/07/30 05:41:31;;;;;;;3.22;0.50;;;21.30;99.90;;;;;;4903373;29;20052;-76
2022/07/30 05:44:05;;;;;;;2.13;0.50;;;21.30;99.90;;;;;;4902438;29;20621;-75
2022/07/30 05:46:32;;;;;;;0.50;0.50;;;21.20;99.90;;;;;;4894790;29;20056;-77
2022/07/30 05:49:00;;;;;;;1.15;0.70;;;21.00;99.90;;;;;;4904513;29;20055;-76
2022/07/30 05:51:28;;;;;;;0.82;0.80;;;20.80;99.90;;;;;;4897533;29;20552;-75
2022/07/30 05:53:57;;;;;;;2.25;0.80;;;20.70;99.90;;;;;;4902400;29;20167;-75
2022/07/30 05:57:03;;;;;;;1.63;0.57;;;20.50;99.90;;;;;;4900950;29;20096;-76
2022/07/30 05:59:37;;;;;;;4.72;0.57;;;20.50;99.90;;;;;;4907076;29;20056;-75
2022/07/30 06:02:20;;;;;;;0.95;0.57;;;20.40;99.90;;;;;;4887917;29;20056;-75
2022/07/30 06:05:00;;;;;;;3.15;0.70;;;20.20;99.90;;;;;;4879077;29;20108;-75
2022/07/30 06:07:27;;;;;;;0.52;0.50;;;20.00;99.90;;;;;;4892662;29;20040;-76
2022/07/30 06:10:00;;;;;;;1.80;0.60;;;19.80;99.90;;;;;;4908691;29;20173;-75
2022/07/30 06:12:31;;;;;;;2.33;1.35;;;19.70;99.90;;;;;;4901683;29;20044;-75
2022/07/30 06:14:59;;;;;;;0.95;0.80;;;19.40;99.90;;;;;;4906026;29;20052;-75
2022/07/30 06:17:31;;;;;;;0.75;0.75;;;19.20;99.90;;;;;;4912600;29;20047;-76
2022/07/30 06:20:10;;;;;;;2.67;0.63;;;19.10;99.90;;;;;;4900178;29;20052;-75
2022/07/30 06:22:50;;;;;;;0.93;0.77;;;19.00;99.90;;;;;;4895997;29;20411;-75
2022/07/30 06:25:26;;;;;;;0.93;0.70;;;19.00;99.90;;;;;;4894184;29;20147;-77
2022/07/30 06:27:53;;;;;;;4.05;1.02;;;19.10;99.90;;;;;;4893913;29;20160;-77
2022/07/30 06:30:20;;;;;;;1.35;0.88;;;19.10;99.90;;;;;;4885969;29;20060;-77
2022/07/30 06:32:48;;;;;;;1.17;0.70;;;19.10;99.90;;;;;;4879568;29;20063;-76
2022/07/30 06:35:16;;;;;;;1.75;0.85;;;19.00;99.90;;;;;;4881825;29;20052;-75
2022/07/30 06:37:43;;;;;;;2.10;1.00;;;19.00;99.90;;;;;;4888367;29;20140;-76
2022/07/30 06:40:13;;;;;;;1.63;0.80;;;19.00;99.90;;;;;;4894521;29;20112;-76
2022/07/30 06:43:08;;;;;;;2.75;0.70;;;19.20;99.90;;;;;;4892073;29;20048;-76
2022/07/30 06:45:49;;;;;;;0.88;0.88;;;19.30;99.90;;;;;;4899510;29;20079;-78
2022/07/30 06:48:31;;;;;;;3.42;2.92;;;19.40;99.90;;;;;;4868205;29;20617;-73
2022/07/30 06:51:02;;;;;;;4.05;0.85;;;19.70;99.90;;;;;;4874166;29;20494;-76
2022/07/30 06:53:30;;;;;;;0.98;0.90;;;20.10;99.90;;;;;;4877505;29;20531;-78
2022/07/30 06:56:15;;;;;;;2.83;1.35;;;20.40;99.90;;;;;;4897102;29;20421;-77
2022/07/30 06:58:57;;;;;;;0.80;0.80;;;20.60;99.90;;;;;;4894654;29;20060;-76
2022/07/30 07:01:43;;;;;;;2.13;0.80;;;20.70;99.90;;;;;;4893493;29;20060;-76
2022/07/30 07:04:12;;;;;;;2.53;0.80;;;20.80;99.90;;;;;;4892275;29;20079;-77
2022/07/30 07:06:40;;;;;;;0.88;0.77;;;21.10;99.90;;;;;;4891479;29;20072;-79
2022/07/30 07:09:09;;;;;;;2.28;0.95;;;21.60;99.90;;;;;;4895738;29;20522;-72
2022/07/30 07:11:49;;;;;;;2.50;1.50;;;21.70;99.90;;;;;;4891174;29;20041;-71
2022/07/30 07:14:20;;;;;;;0.68;0.43;;;21.50;99.90;;;;;;4893858;29;20163;-72
2022/07/30 07:16:48;;;;;;;1.50;0.70;;;21.30;99.90;;;;;;4904924;29;20048;-71
2022/07/30 07:19:51;;;;;;;2.85;1.38;;;21.30;99.90;;;;;;4903796;29;20063;-68
2022/07/30 07:22:19;;;;;;;1.05;0.75;;;21.40;99.90;;;;;;4887258;29;20154;-69
2022/07/30 07:24:46;;;;;;;3.47;0.95;;;21.70;99.90;;;;;;4892851;29;20055;-69
2022/07/30 07:27:17;;;;;;;3.13;0.63;;;22.00;99.90;;;;;;4896979;29;20063;-69
2022/07/30 07:29:50;;;;;;;1.98;0.80;;;22.00;99.90;;;;;;4896917;29;20071;-69
2022/07/30 07:32:17;;;;;;;0.93;0.70;;;22.10;99.90;;;;;;4900244;29;20540;-70
2022/07/30 07:34:46;;;;;;;0.80;0.80;;;22.10;99.90;;;;;;4899232;29;20112;-70
2022/07/30 07:37:15;;;;;;;0.70;0.70;;;22.10;99.90;;;;;;4912424;29;20053;-75
2022/07/30 07:39:42;;;;;;;2.90;1.50;;;22.30;99.90;;;;;;4898282;29;20127;-70
2022/07/30 07:42:10;;;;;;;0.98;0.98;;;22.30;99.90;;;;;;4898789;29;20061;-69
2022/07/30 07:44:39;;;;;;;0.93;0.93;;;22.20;99.90;;;;;;4916541;29;20115;-69
2022/07/30 07:47:10;;;;;;;2.05;1.23;;;22.20;99.90;;;;;;4913550;29;20049;-70
2022/07/30 07:49:43;;;;;;;1.10;1.00;;;22.10;99.90;;;;;;4890613;29;20068;-75
2022/07/30 07:52:11;;;;;;;3.55;1.40;;;21.90;99.90;;;;;;4894762;29;20431;-73
2022/07/30 07:54:38;;;;;;;4.78;1.35;;;21.70;99.90;;;;;;4874865;29;20049;-70
2022/07/30 07:57:07;;;;;;;5.05;1.38;;;21.30;99.90;;;;;;4892498;29;20425;-70
2022/07/30 07:59:41;;;;;;;2.60;1.27;;;20.90;99.90;;;;;;4890374;29;20044;-73
2022/07/30 08:02:21;;;;;;;2.97;1.35;;;20.60;99.90;;;;;;4891176;29;20061;-73
2022/07/30 08:04:54;;;;;;;3.03;1.17;;;20.40;99.90;;;;;;4899674;29;20120;-76
2022/07/30 08:07:40;;;;;;;1.85;1.05;;;20.30;99.90;;;;;;4902363;29;20051;-74
2022/07/30 08:10:26;;;;;;;1.10;0.90;;;20.20;99.90;;;;;;4899439;29;20532;-72
2022/07/30 08:13:13;;;;;;;2.13;1.13;;;20.20;99.90;;;;;;4901817;29;20071;-73
2022/07/30 08:16:02;;;;;;;5.88;1.75;;;20.10;99.90;;;;;;4902482;29;20510;-74
2022/07/30 08:18:57;;;;;;;1.35;1.25;;;20.00;99.90;;;;;;4896212;29;20540;-72
2022/07/30 08:21:34;;;;;;;1.27;1.00;;;19.90;99.90;;;;;;4898952;29;20051;-77
2022/07/30 08:24:02;;;;;;;2.28;1.25;;;19.80;99.90;;;;;;4897387;29;20048;-73
2022/07/30 08:26:29;;;;;;;1.75;1.40;;;20.00;99.90;;;;;;4877594;29;20532;-73
2022/07/30 08:28:57;;;;;;;3.30;1.20;;;20.00;99.90;;;;;;4893929;29;21058;-77
2022/07/30 08:31:24;;;;;;;2.67;1.27;;;19.90;99.90;;;;;;4878478;29;20437;-78
2022/07/30 08:33:51;;;;;;;3.28;1.42;;;19.80;99.90;;;;;;4893002;29;20045;-76
2022/07/30 08:36:20;;;;;;;1.33;1.23;;;19.80;99.90;;;;;;4893536;29;20045;-75
2022/07/30 08:38:49;;;;;;;1.45;1.00;;;19.90;99.90;;;;;;4876765;29;20104;-78
2022/07/30 08:41:19;;;;;;;4.35;1.60;;;20.00;99.90;;;;;;4892648;29;20056;-75
2022/07/30 08:43:50;;;;;;;1.38;1.27;;;20.10;99.90;;;;;;4878210;29;20056;-76
2022/07/30 08:46:24;;;;;;;2.30;1.23;;;20.30;99.90;;;;;;4887612;29;20061;-71
2022/07/30 08:49:12;;;;;;;3.17;1.38;;;21.20;99.90;;;;;;4869545;29;20063;-72
2022/07/30 08:51:42;;;;;;;5.07;1.27;;;22.40;99.90;;;;;;4889228;29;20052;-73
2022/07/30 08:54:39;;;;;;;1.63;1.50;;;23.40;99.90;;;;;;4890156;29;20505;-70
2022/07/30 08:57:08;;;;;;;1.95;1.17;;;23.80;99.90;;;;;;4894642;29;20099;-73
2022/07/30 08:59:38;;;;;;;1.92;1.25;;;23.90;99.90;;;;;;4888059;29;20067;-71
2022/07/30 09:02:05;;;;;;;1.70;1.60;;;24.30;99.90;;;;;;4907401;29;20056;-71
2022/07/30 09:04:37;;;;;;;1.55;1.30;;;24.40;99.90;;;;;;4905059;29;20549;-70
2022/07/30 09:07:06;;;;;;;1.23;1.10;;;24.30;99.90;;;;;;4890234;29;20147;-71
2022/07/30 09:09:33;;;;;;;1.55;1.13;;;24.30;99.90;;;;;;4891630;29;20056;-71
2022/07/30 09:12:00;;;;;;;2.83;1.10;;;24.40;99.90;;;;;;4891877;29;20888;-72
2022/07/30 09:14:28;;;;;;;1.40;1.30;;;24.80;99.90;;;;;;4897241;29;20711;-71
2022/07/30 09:16:57;;;;;;;1.70;1.60;;;25.80;99.90;;;;;;4892609;29;20057;-71
2022/07/30 09:19:25;;;;;;;2.88;1.65;;;25.90;99.90;;;;;;4902711;29;20059;-72
2022/07/30 09:21:57;;;;;;;3.88;1.35;;;25.30;99.90;;;;;;4894005;29;20053;-71
2022/07/30 09:24:43;;;;;;;3.38;1.40;;;24.90;99.90;;;;;;4892038;29;20064;-73
2022/07/30 09:27:45;;;;;;;2.20;1.08;;;25.50;99.90;;;;;;4892321;29;20040;-71
2022/07/30 09:30:50;;;;;;;2.22;1.10;;;26.70;99.90;;;;;;4874909;29;20137;-75
2022/07/30 09:33:38;;;;;;;1.13;1.10;;;27.20;99.90;;;;;;4895898;29;20036;-75
2022/07/30 09:36:32;;;;;;;1.80;1.00;;;26.40;99.90;;;;;;4894285;29;20049;-75
2022/07/30 09:39:34;;;;;;;1.25;1.15;;;26.10;99.90;;;;;;4891566;29;20060;-76
2022/07/30 09:42:25;;;;;;;2.30;0.90;;;26.60;99.90;;;;;;4895930;29;20063;-74
2022/07/30 09:45:06;;;;;;;1.13;1.00;;;26.90;98.00;;;;;;4880482;29;20378;-74
2022/07/30 09:47:36;;;;;;;2.38;0.73;;;27.20;96.10;;;;;;4895770;29;20053;-74
2022/07/30 09:50:05;;;;;;;0.95;0.95;;;27.10;97.80;;;;;;4879060;29;20085;-74
2022/07/30 09:52:33;;;;;;;2.60;1.05;;;26.80;97.00;;;;;;4908699;29;20518;-72
2022/07/30 09:55:00;;;;;;;1.10;1.00;;;27.30;96.10;;;;;;4887968;29;20592;-73
2022/07/30 09:57:34;;;;;;;1.80;1.05;;;27.30;93.90;;;;;;4893925;29;20052;-76
2022/07/30 10:00:23;;;;;;;0.90;0.90;;;26.50;95.00;;;;;;4908324;29;20108;-76
2022/07/30 10:03:18;;;;;;;;;;;26.00;95.50;;;;;;4910335;29;20048;-76
2022/07/30 10:06:05;;;;;;;1.35;1.25;;;27.00;95.10;;;;;;4889431;29;19927;-75
2022/07/30 10:08:41;;;;;;;1.20;1.10;;;28.10;91.70;;;;;;4908749;29;20041;-72
2022/07/30 10:11:12;;;;;;;1.98;0.85;;;29.20;90.30;;;;;;4895482;29;20067;-71
2022/07/30 10:13:42;;;;;;;2.25;0.82;;;30.10;85.60;;;;;;4910281;29;20064;-72
2022/07/30 10:16:10;;;;;;;1.40;0.90;;;31.00;83.90;;;;;;4893817;29;20074;-72
2022/07/30 10:18:37;;;;;;;2.15;1.80;;;31.50;77.10;;;;;;4895398;29;20044;-72
2022/07/30 10:21:24;;;;;;;1.95;1.02;;;30.70;76.60;;;;;;4897112;29;20458;-72
2022/07/30 10:24:12;;;;;;;1.70;0.90;;;30.30;77.30;;;;;;4894475;29;20056;-72
2022/07/30 10:27:08;;;;;;;2.58;0.80;;;29.10;77.50;;;;;;4895300;29;20517;-72
2022/07/30 10:29:43;;;;;;;2.70;0.93;;;28.30;79.20;;;;;;4897024;29;20131;-72
2022/07/30 10:32:11;;;;;;;1.55;1.45;;;27.90;80.80;;;;;;4896577;29;20108;-72
2022/07/30 10:34:39;;;;;;;2.47;1.05;;;27.60;81.90;;;;;;4896879;29;20080;-72
2022/07/30 10:37:07;;;;;;;1.48;1.08;;;28.10;81.30;;;;;;4908943;29;20052;-73
2022/07/30 10:39:39;;;;;;;3.58;1.30;;;29.10;79.00;;;;;;4896554;29;20056;-73
2022/07/30 10:42:22;;;;;;;3.88;1.10;;;30.00;75.80;;;;;;4892468;29;20068;-73
2022/07/30 10:45:08;;;;;;;4.50;1.17;;;30.70;74.80;;;;;;4891647;29;20590;-72
2022/07/30 10:47:38;;;;;;;2.13;1.40;;;29.90;73.20;;;;;;4890403;29;20052;-70
2022/07/30 10:50:09;;;;;;;4.22;1.65;;;29.40;73.70;;;;;;4879006;29;20056;-71
2022/07/30 10:52:49;;;;;;;1.92;1.80;;;29.10;75.20;;;;;;4897016;29;20060;-73
2022/07/30 10:55:18;;;;;;;2.45;2.08;;;29.50;74.40;;;;;;4909448;29;20167;-72
2022/07/30 10:58:02;;;;;;;3.85;1.60;;;28.40;77.00;;;;;;4895236;29;20538;-72
2022/07/30 11:00:31;;;;;;;4.40;1.02;;;27.00;81.50;;;;;;4886900;29;20076;-72
2022/07/30 11:03:18;;;;;;;0.88;0.85;;;26.10;86.30;;;;;;4886938;29;20450;-74
2022/07/30 11:05:48;;;;;;;1.15;1.00;;;25.40;87.20;;;;;;4894161;29;20147;-73
2022/07/30 11:08:53;;;;;;;5.63;3.08;;;25.70;89.40;;;;;;4895941;29;20466;-73
2022/07/30 11:11:44;;;;;;;1.73;1.50;;;25.70;88.40;;;;;;4900958;29;20063;-73
2022/07/30 11:14:12;;;;;;;2.00;1.10;;;25.90;90.20;;;;;;4877810;29;20059;-73
2022/07/30 11:17:00;;;;;;;1.42;1.05;;;27.60;87.20;;;;;;4894321;29;20506;-73
2022/07/30 11:19:27;;;;;;;4.03;1.00;;;29.30;80.10;;;;;;4886800;29;20564;-71
2022/07/30 11:22:27;;;;;;;2.00;0.90;;;30.40;76.30;;;;;;4886529;29;20148;-71
2022/07/30 11:24:55;;;;;;;1.10;1.00;;;31.80;74.60;;;;;;4892384;29;20459;-71
2022/07/30 11:27:39;;;;;;;5.50;2.85;;;33.30;69.30;;;;;;4894163;29;20127;-72
2022/07/30 11:30:32;;;;;;;2.53;0.70;;;33.60;64.50;;;;;;4895360;29;20052;-73
2022/07/30 11:33:24;;;;;;;3.40;1.10;;;32.20;66.00;;;;;;4885721;29;20560;-73
2022/07/30 11:36:12;;;;;;;1.42;0.73;;;31.00;68.40;;;;;;4894942;29;20067;-72
2022/07/30 11:38:53;;;;;;;0.90;0.90;;;31.80;67.10;;;;;;4890094;29;20045;-72
2022/07/30 11:41:21;;;;;;;0.70;0.70;;;33.20;63.10;;;;;;4887991;29;20139;-75
2022/07/30 11:44:09;;;;;;;2.47;0.80;;;33.60;59.50;;;;;;4886603;29;20052;-75
2022/07/30 11:46:36;;;;;;;1.10;0.80;;;34.00;58.70;;;;;;4892101;29;20068;-75
2022/07/30 11:49:07;;;;;;;1.05;0.93;;;34.60;57.30;;;;;;4885386;29;20077;-74
2022/07/30 11:51:40;;;;;;;1.08;0.85;;;35.20;57.40;;;;;;4886436;29;20052;-75
2022/07/30 11:54:10;;;;;;;1.98;1.00;;;34.90;56.20;;;;;;4885263;29;20053;-75
2022/07/30 11:56:47;;;;;;;4.13;0.70;;;34.40;56.50;;;;;;4890684;29;20053;-70
2022/07/30 11:59:14;;;;;;;4.05;0.55;;;34.10;55.00;;;;;;4888301;29;20447;-71
2022/07/30 12:01:42;;;;;;;8.70;0.80;;;33.00;55.40;;;;;;4884708;29;20135;-71
2022/07/30 12:04:11;;;;;;;2.60;0.80;;;31.30;58.00;;;;;;4894415;29;20048;-74
2022/07/30 12:06:44;;;;;;;4.20;0.93;;;29.70;62.00;;;;;;4895514;29;20155;-72
2022/07/30 12:09:12;;;;;;;4.03;2.85;;;28.40;64.60;;;;;;4893528;29;20398;-74
2022/07/30 12:11:40;;;;;;;1.55;0.90;;;28.10;69.10;;;;;;4895073;29;20054;-75
2022/07/30 12:14:07;;;;;;;1.67;0.68;;;29.40;67.00;;;;;;4900210;29;20055;-71
2022/07/30 12:16:34;;;;;;;2.28;0.80;;;29.90;64.00;;;;;;4883365;29;20486;-76
2022/07/30 12:19:02;;;;;;;3.15;0.98;;;29.10;65.50;;;;;;4895006;29;20135;-73
2022/07/30 12:21:31;;;;;;;2.22;2.08;;;29.00;66.40;;;;;;4909018;29;20048;-72
2022/07/30 12:24:01;;;;;;;3.20;3.00;;;30.50;65.20;;;;;;4900437;29;20040;-72
2022/07/30 12:26:30;;;;;;;1.35;1.00;;;31.40;62.60;;;;;;4902665;29;20479;-71
2022/07/30 12:28:59;;;;;;;2.35;0.75;;;31.70;60.50;;;;;;4895053;29;20087;-72
2022/07/30 12:31:26;;;;;;;1.85;1.23;;;31.50;60.50;;;;;;4897304;29;20459;-71
2022/07/30 12:33:55;;;;;;;2.83;1.75;;;32.30;60.40;;;;;;4876640;29;20057;-72
2022/07/30 12:36:28;;;;;;;1.00;1.00;;;32.80;58.40;;;;;;4878432;29;20075;-73
2022/07/30 12:38:57;;;;;;;2.05;0.90;;;32.50;58.20;;;;;;4876236;29;20051;-71
2022/07/30 12:41:41;;;;;;;2.72;0.90;;;31.40;60.00;;;;;;4903392;29;20075;-73
2022/07/30 12:44:08;;;;;;;1.00;1.00;;;30.30;62.50;;;;;;4876467;29;20057;-69
2022/07/30 12:46:40;;;;;;;0.88;0.88;;;29.80;61.90;;;;;;4892003;29;20048;-71
2022/07/30 12:49:08;;;;;;;2.63;1.15;;;29.00;63.60;;;;;;4881350;29;20148;-73
2022/07/30 12:51:37;;;;;;;2.42;0.80;;;28.20;64.50;;;;;;4898084;29;20117;-73
2022/07/30 12:54:17;;;;;;;21.35;8.30;;;27.30;67.00;;;;;;4897668;29;21849;-73
2022/07/30 12:56:57;;;;;;;6.65;1.45;;;26.60;71.00;;;;;;4891919;29;20164;-70
2022/07/30 12:59:25;;;;;;;2.67;1.13;;;26.00;72.90;;;;;;4889467;29;20075;-71
2022/07/30 13:01:53;;;;;;;2.60;1.17;;;25.70;73.60;;;;;;4898072;29;20060;-73
2022/07/30 13:04:20;;;;;;;0.88;0.82;;;25.40;74.60;;;;;;4886997;29;20048;-69
2022/07/30 13:07:03;;;;;;;2.25;1.38;;;25.10;74.70;;;;;;4897533;29;20506;-70
2022/07/30 13:09:31;;;;;;;3.05;0.90;;;24.80;76.50;;;;;;4895518;29;20087;-70
2022/07/30 13:11:58;;;;;;;0.75;0.75;;;24.60;77.90;;;;;;4890650;29;20509;-71
2022/07/30 13:14:26;;;;;;;9.20;3.20;;;24.30;80.10;;;;;;4879646;29;20072;-70
2022/07/30 13:16:54;;;;;;;4.15;1.40;;;24.00;82.10;;;;;;4888226;29;20501;-71
2022/07/30 13:19:22;;;;;;;2.92;1.40;;;24.00;81.40;;;;;;4890479;29;20502;-71
2022/07/30 13:21:49;;;;;;;5.07;1.73;;;24.30;79.10;;;;;;4906794;29;20544;-71